createdAt,value
2023-05-19T00:00:28.354Z,44.31
2023-05-19T00:01:28.377Z,44.28
2023-05-19T00:02:28.416Z,44.19
2023-05-19T00:03:28.352Z,44.11
2023-05-19T00:04:28.284Z,43.95
2023-05-19T00:05:28.327Z,44.29
2023-05-19T00:06:28.258Z,44.33
2023-05-19T00:07:28.242Z,44.23
2023-05-19T00:08:28.229Z,44.34
2023-05-19T00:09:28.225Z,44.32
2023-05-19T00:10:28.208Z,44.32
2023-05-19T00:11:28.196Z,44.36
2023-05-19T00:12:28.204Z,44.36
2023-05-19T00:13:28.187Z,44.38
2023-05-19T00:14:28.153Z,44.41
2023-05-19T00:15:28.167Z,44.34
2023-05-19T00:16:28.163Z,44.28
2023-05-19T00:17:28.139Z,44.20
2023-05-19T00:18:28.106Z,44.14
2023-05-19T00:19:28.213Z,43.95
2023-05-19T00:20:28.106Z,43.97
2023-05-19T00:21:28.130Z,44.22
2023-05-19T00:22:28.085Z,43.96
2023-05-19T00:23:28.062Z,43.99
2023-05-19T00:24:28.041Z,44.15
2023-05-19T00:25:28.045Z,44.09
2023-05-19T00:26:28.047Z,44.26
2023-05-19T00:27:28.018Z,44.18
2023-05-19T00:28:27.994Z,44.05
2023-05-19T00:29:27.974Z,44.13
2023-05-19T00:30:27.949Z,44.28
2023-05-19T00:31:27.970Z,44.09
2023-05-19T00:32:27.975Z,44.08
2023-05-19T00:33:27.943Z,44.08
2023-05-19T00:34:27.960Z,43.95
2023-05-19T00:35:27.907Z,44.10
2023-05-19T00:36:27.902Z,44.17
2023-05-19T00:37:27.863Z,44.20
2023-05-19T00:38:27.894Z,44.28
2023-05-19T00:39:27.912Z,44.23
2023-05-19T00:40:27.826Z,44.29
2023-05-19T00:41:27.837Z,44.32
2023-05-19T00:42:27.810Z,44.27
2023-05-19T00:43:27.773Z,44.32
2023-05-19T00:44:27.782Z,44.32
2023-05-19T00:45:27.771Z,43.93
2023-05-19T00:46:27.782Z,43.96
2023-05-19T00:47:27.814Z,44.20
2023-05-19T00:48:27.766Z,44.18
2023-05-19T00:49:29.748Z,44.02
2023-05-19T00:50:27.741Z,44.16
2023-05-19T00:51:27.714Z,43.95
2023-05-19T00:52:27.735Z,44.27
2023-05-19T00:53:27.732Z,44.28
2023-05-19T00:54:27.678Z,44.24
2023-05-19T00:55:27.682Z,44.15
2023-05-19T00:56:27.681Z,43.94
2023-05-19T00:57:27.650Z,44.24
2023-05-19T00:58:27.657Z,44.00
2023-05-19T00:59:27.685Z,44.00
2023-05-19T01:00:27.655Z,44.23
2023-05-19T01:01:27.758Z,44.25
2023-05-19T01:02:27.679Z,44.10
2023-05-19T01:03:27.749Z,44.02
2023-05-19T01:04:27.609Z,44.16
2023-05-19T01:05:27.633Z,44.22
2023-05-19T01:06:27.623Z,44.33
2023-05-19T01:07:27.588Z,44.32
2023-05-19T01:08:27.620Z,44.36
2023-05-19T01:09:27.566Z,44.33
2023-05-19T01:10:27.595Z,44.38
2023-05-19T01:11:27.561Z,44.36
2023-05-19T01:12:27.549Z,44.40
2023-05-19T01:13:27.581Z,44.26
2023-05-19T01:14:27.538Z,44.31
2023-05-19T01:15:27.537Z,44.30
2023-05-19T01:16:27.526Z,44.29
2023-05-19T01:17:27.562Z,44.36
2023-05-19T01:18:27.463Z,44.12
2023-05-19T01:19:27.534Z,44.27
2023-05-19T01:20:27.479Z,44.38
2023-05-19T01:21:27.463Z,44.22
2023-05-19T01:22:27.455Z,44.30
2023-05-19T01:23:27.458Z,44.33
2023-05-19T01:24:27.414Z,44.36
2023-05-19T01:25:27.423Z,44.29
2023-05-19T01:26:27.412Z,44.02
2023-05-19T01:27:27.380Z,44.29
2023-05-19T01:28:27.363Z,44.35
2023-05-19T01:29:27.353Z,44.30
2023-05-19T01:30:27.325Z,44.31
2023-05-19T01:31:27.371Z,44.36
2023-05-19T01:32:27.330Z,44.34
2023-05-19T01:33:27.283Z,44.35
2023-05-19T01:34:27.270Z,44.12
2023-05-19T01:35:27.272Z,44.16
2023-05-19T01:36:27.307Z,44.34
2023-05-19T01:37:27.254Z,44.33
2023-05-19T01:38:27.252Z,44.20
2023-05-19T01:39:27.258Z,44.23
2023-05-19T01:40:27.228Z,44.20
2023-05-19T01:41:27.220Z,44.30
2023-05-19T01:42:27.219Z,44.29
2023-05-19T01:43:27.201Z,44.38
2023-05-19T01:44:27.202Z,44.41
2023-05-19T01:45:27.182Z,44.40
2023-05-19T01:46:27.212Z,44.20
2023-05-19T01:47:27.192Z,44.03
2023-05-19T01:48:27.155Z,44.16
2023-05-19T01:49:27.164Z,44.19
2023-05-19T01:50:27.145Z,44.29
2023-05-19T01:51:27.105Z,44.34
2023-05-19T01:52:27.082Z,44.06
2023-05-19T01:53:27.084Z,44.04
2023-05-19T01:54:27.088Z,44.26
2023-05-19T01:55:27.075Z,44.34
2023-05-19T01:56:27.054Z,44.38
2023-05-19T01:57:27.039Z,44.36
2023-05-19T01:58:27.048Z,44.42
2023-05-19T01:59:26.992Z,44.40
2023-05-19T02:00:26.999Z,44.41
2023-05-19T02:01:27.009Z,44.16
2023-05-19T02:02:27.016Z,44.01
2023-05-19T02:03:26.999Z,44.16
2023-05-19T02:04:26.972Z,44.24
2023-05-19T02:05:26.923Z,44.30
2023-05-19T02:06:26.960Z,44.25
2023-05-19T02:07:26.902Z,44.35
2023-05-19T02:08:26.900Z,44.28
2023-05-19T02:09:26.958Z,44.34
2023-05-19T02:10:26.849Z,44.29
2023-05-19T02:11:26.862Z,44.26
2023-05-19T02:12:26.837Z,44.38
2023-05-19T02:13:26.813Z,44.17
2023-05-19T02:14:26.822Z,44.27
2023-05-19T02:15:26.810Z,44.24
2023-05-19T02:16:26.839Z,44.32
2023-05-19T02:17:26.830Z,44.31
2023-05-19T02:18:26.793Z,44.30
2023-05-19T02:19:26.883Z,44.42
2023-05-19T02:20:26.751Z,44.39
2023-05-19T02:21:26.735Z,44.24
2023-05-19T02:22:26.733Z,44.28
2023-05-19T02:23:26.766Z,44.15
2023-05-19T02:24:26.693Z,44.16
2023-05-19T02:25:26.688Z,44.32
2023-05-19T02:26:26.680Z,44.16
2023-05-19T02:27:26.626Z,44.11
2023-05-19T02:28:26.623Z,44.17
2023-05-19T02:29:26.669Z,44.29
2023-05-19T02:30:26.632Z,44.17
2023-05-19T02:31:26.645Z,44.22
2023-05-19T02:32:26.652Z,44.34
2023-05-19T02:33:26.589Z,44.05
2023-05-19T02:34:26.594Z,44.23
2023-05-19T02:35:26.560Z,44.10
2023-05-19T02:36:26.588Z,44.29
2023-05-19T02:37:26.542Z,44.37
2023-05-19T02:38:26.544Z,44.41
2023-05-19T02:39:26.546Z,44.41
2023-05-19T02:40:26.506Z,44.14
2023-05-19T02:41:26.543Z,44.02
2023-05-19T02:42:26.532Z,44.00
2023-05-19T02:43:26.518Z,43.97
2023-05-19T02:44:26.466Z,44.21
2023-05-19T02:45:26.458Z,44.20
2023-05-19T02:46:26.518Z,44.12
2023-05-19T02:47:26.499Z,44.07
2023-05-19T02:48:26.431Z,43.95
2023-05-19T02:49:26.422Z,44.27
2023-05-19T02:50:26.429Z,44.20
2023-05-19T02:51:26.365Z,44.10
2023-05-19T02:52:26.392Z,44.02
2023-05-19T02:53:26.380Z,43.98
2023-05-19T02:54:26.393Z,43.96
2023-05-19T02:55:26.372Z,43.93
2023-05-19T02:56:26.371Z,44.11
2023-05-19T02:57:26.410Z,44.04
2023-05-19T02:58:26.349Z,43.98
2023-05-19T02:59:26.325Z,43.95
2023-05-19T03:00:26.323Z,43.95
2023-05-19T03:01:26.395Z,43.93
2023-05-19T03:02:26.379Z,44.02
2023-05-19T03:03:26.379Z,44.00
2023-05-19T03:04:26.329Z,44.04
2023-05-19T03:05:26.340Z,44.29
2023-05-19T03:06:26.300Z,44.25
2023-05-19T03:07:26.277Z,44.20
2023-05-19T03:08:26.293Z,44.09
2023-05-19T03:09:26.288Z,44.19
2023-05-19T03:10:26.294Z,44.11
2023-05-19T03:11:26.279Z,44.17
2023-05-19T03:12:26.266Z,44.16
2023-05-19T03:13:26.264Z,44.32
2023-05-19T03:14:26.255Z,44.24
2023-05-19T03:15:26.259Z,44.14
2023-05-19T03:16:26.292Z,44.11
2023-05-19T03:17:26.363Z,44.17
2023-05-19T03:18:26.323Z,44.21
2023-05-19T03:19:26.383Z,44.20
2023-05-19T03:20:26.239Z,44.17
2023-05-19T03:21:26.215Z,44.02
2023-05-19T03:22:26.249Z,44.22
2023-05-19T03:23:26.242Z,44.07
2023-05-19T03:24:26.215Z,44.15
2023-05-19T03:25:26.222Z,44.28
2023-05-19T03:26:26.255Z,44.31
2023-05-19T03:27:26.241Z,44.30
2023-05-19T03:28:26.192Z,44.35
2023-05-19T03:29:26.237Z,44.42
2023-05-19T03:30:26.202Z,44.41
2023-05-19T03:31:26.274Z,44.27
2023-05-19T03:32:26.256Z,44.16
2023-05-19T03:33:26.348Z,44.09
2023-05-19T03:34:26.238Z,44.19
2023-05-19T03:35:26.187Z,44.17
2023-05-19T03:36:26.224Z,44.12
2023-05-19T03:37:26.182Z,44.06
2023-05-19T03:38:26.224Z,44.02
2023-05-19T03:39:26.182Z,44.04
2023-05-19T03:40:26.241Z,44.09
2023-05-19T03:41:26.202Z,44.07
2023-05-19T03:42:26.206Z,44.02
2023-05-19T03:43:26.225Z,44.13
2023-05-19T03:44:26.211Z,44.07
2023-05-19T03:45:26.192Z,44.06
2023-05-19T03:46:26.233Z,44.25
2023-05-19T03:47:26.238Z,44.20
2023-05-19T03:48:26.209Z,44.13
2023-05-19T03:49:26.194Z,44.18
2023-05-19T03:50:26.227Z,44.11
2023-05-19T03:51:26.201Z,44.08
2023-05-19T03:52:26.161Z,44.00
2023-05-19T03:53:26.175Z,44.02
2023-05-19T03:54:26.162Z,44.16
2023-05-19T03:55:26.167Z,44.40
2023-05-19T03:56:26.150Z,44.19
2023-05-19T03:57:26.171Z,44.15
2023-05-19T03:58:26.159Z,44.12
2023-05-19T03:59:26.093Z,44.09
2023-05-19T04:00:26.099Z,44.07
2023-05-19T04:01:26.131Z,44.04
2023-05-19T04:02:26.165Z,44.16
2023-05-19T04:03:26.198Z,44.10
2023-05-19T04:04:26.149Z,44.32
2023-05-19T04:05:26.067Z,44.22
2023-05-19T04:06:26.062Z,44.10
2023-05-19T04:07:26.064Z,44.07
2023-05-19T04:08:26.063Z,44.25
2023-05-19T04:09:26.032Z,44.37
2023-05-19T04:10:26.081Z,44.16
2023-05-19T04:11:26.058Z,44.37
2023-05-19T04:12:26.042Z,44.47
2023-05-19T04:13:26.164Z,44.38
2023-05-19T04:14:26.056Z,44.26
2023-05-19T04:15:26.040Z,44.21
2023-05-19T04:16:26.032Z,44.08
2023-05-19T04:17:26.054Z,44.34
2023-05-19T04:18:28.801Z,44.31
2023-05-19T04:19:26.015Z,44.25
2023-05-19T04:20:25.965Z,44.28
2023-05-19T04:21:25.987Z,44.24
2023-05-19T04:22:25.899Z,44.22
2023-05-19T04:23:25.910Z,44.28
2023-05-19T04:24:25.835Z,44.15
2023-05-19T04:25:25.867Z,44.23
2023-05-19T04:26:25.794Z,44.25
2023-05-19T04:27:25.788Z,44.13
2023-05-19T04:28:25.802Z,44.08
2023-05-19T04:29:25.757Z,44.04
2023-05-19T04:30:25.749Z,44.02
2023-05-19T04:31:25.729Z,44.12
2023-05-19T04:32:25.730Z,44.17
2023-05-19T04:33:25.646Z,43.99
2023-05-19T04:34:25.600Z,44.14
2023-05-19T04:35:25.593Z,44.12
2023-05-19T04:36:25.555Z,44.20
2023-05-19T04:37:25.570Z,44.25
2023-05-19T04:38:25.515Z,44.07
2023-05-19T04:39:25.482Z,44.18
2023-05-19T04:40:25.498Z,44.19
2023-05-19T04:41:25.483Z,44.19
2023-05-19T04:42:25.426Z,44.33
2023-05-19T04:43:25.366Z,44.32
2023-05-19T04:44:25.344Z,44.27
2023-05-19T04:45:25.318Z,44.22
2023-05-19T04:46:25.343Z,44.15
2023-05-19T04:47:25.317Z,44.32
2023-05-19T04:48:25.247Z,44.37
2023-05-19T04:49:25.241Z,44.20
2023-05-19T04:50:25.208Z,44.12
2023-05-19T04:51:25.171Z,44.27
2023-05-19T04:52:25.156Z,44.45
2023-05-19T04:53:25.129Z,44.75
2023-05-19T04:54:25.089Z,44.93
2023-05-19T04:55:25.069Z,45.10
2023-05-19T04:56:25.068Z,45.20
2023-05-19T04:57:25.038Z,45.25
2023-05-19T04:58:24.993Z,45.34
2023-05-19T04:59:24.978Z,45.43
2023-05-19T05:00:24.944Z,45.53
2023-05-19T05:01:24.971Z,45.58
2023-05-19T05:02:24.968Z,45.64
2023-05-19T05:03:24.952Z,45.66
2023-05-19T05:04:24.843Z,45.70
2023-05-19T05:05:24.831Z,45.75
2023-05-19T05:06:24.785Z,45.78
2023-05-19T05:07:24.760Z,45.79
2023-05-19T05:08:24.770Z,45.82
2023-05-19T05:09:24.710Z,45.82
2023-05-19T05:10:24.701Z,45.90
2023-05-19T05:11:24.694Z,45.92
2023-05-19T05:12:24.623Z,45.95
2023-05-19T05:13:24.599Z,45.97
2023-05-19T05:14:24.598Z,45.99
2023-05-19T05:15:24.554Z,46.00
2023-05-19T05:16:24.586Z,46.05
2023-05-19T05:17:24.544Z,46.04
2023-05-19T05:18:24.478Z,46.05
2023-05-19T05:19:24.441Z,46.04
2023-05-19T05:20:24.443Z,46.06
2023-05-19T05:21:24.402Z,46.09
2023-05-19T05:22:24.345Z,46.09
2023-05-19T05:23:24.357Z,46.11
2023-05-19T05:24:24.305Z,46.10
2023-05-19T05:25:24.293Z,46.08
2023-05-19T05:26:24.270Z,46.10
2023-05-19T05:27:24.245Z,46.14
2023-05-19T05:28:24.202Z,46.30
2023-05-19T05:29:24.189Z,46.43
2023-05-19T05:30:24.194Z,46.54
2023-05-19T05:31:24.149Z,46.57
2023-05-19T05:32:24.136Z,46.66
2023-05-19T05:33:24.239Z,46.76
2023-05-19T05:34:24.043Z,46.84
2023-05-19T05:35:24.103Z,46.97
2023-05-19T05:36:23.964Z,47.04
2023-05-19T05:37:23.982Z,47.11
2023-05-19T05:38:23.945Z,47.14
2023-05-19T05:39:23.920Z,47.24
2023-05-19T05:40:23.920Z,47.20
2023-05-19T05:41:23.856Z,47.10
2023-05-19T05:42:23.827Z,47.22
2023-05-19T05:43:23.827Z,47.27
2023-05-19T05:44:23.767Z,47.28
2023-05-19T05:45:23.791Z,47.20
2023-05-19T05:46:23.778Z,47.26
2023-05-19T05:47:23.695Z,47.32
2023-05-19T05:48:23.642Z,47.30
2023-05-19T05:49:24.307Z,47.35
2023-05-19T05:50:23.635Z,47.37
2023-05-19T05:51:23.651Z,47.39
2023-05-19T05:52:23.537Z,47.43
2023-05-19T05:53:23.541Z,47.47
2023-05-19T05:54:23.548Z,47.47
2023-05-19T05:55:23.527Z,47.57
2023-05-19T05:56:23.452Z,47.61
2023-05-19T05:57:23.432Z,47.67
2023-05-19T05:58:23.410Z,47.72
2023-05-19T05:59:23.373Z,47.70
2023-05-19T06:00:23.373Z,47.70
2023-05-19T06:01:23.340Z,47.75
2023-05-19T06:02:23.318Z,47.75
2023-05-19T06:03:23.332Z,47.74
2023-05-19T06:04:23.207Z,47.76
2023-05-19T06:05:23.267Z,47.79
2023-05-19T06:06:23.237Z,47.78
2023-05-19T06:07:23.159Z,47.79
2023-05-19T06:08:23.172Z,47.80
2023-05-19T06:09:23.132Z,47.72
2023-05-19T06:10:23.067Z,47.82
2023-05-19T06:11:23.061Z,47.79
2023-05-19T06:12:23.051Z,47.75
2023-05-19T06:13:23.032Z,47.76
2023-05-19T06:14:23.009Z,47.71
2023-05-19T06:15:23.112Z,47.70
2023-05-19T06:16:23.009Z,47.64
2023-05-19T06:17:22.928Z,47.55
2023-05-19T06:18:22.900Z,47.52
2023-05-19T06:19:23.007Z,47.50
2023-05-19T06:20:22.854Z,47.44
2023-05-19T06:21:22.881Z,47.39
2023-05-19T06:22:22.872Z,47.38
2023-05-19T06:23:22.897Z,47.34
2023-05-19T06:24:22.880Z,47.32
2023-05-19T06:25:22.899Z,47.32
2023-05-19T06:26:22.841Z,47.29
2023-05-19T06:27:22.844Z,47.27
2023-05-19T06:28:22.852Z,47.27
2023-05-19T06:29:22.825Z,47.24
2023-05-19T06:30:22.842Z,47.25
2023-05-19T06:31:22.985Z,47.19
2023-05-19T06:32:22.823Z,47.19
2023-05-19T06:33:22.844Z,47.18
2023-05-19T06:34:22.794Z,47.15
2023-05-19T06:35:22.781Z,47.23
2023-05-19T06:36:22.802Z,47.27
2023-05-19T06:37:22.770Z,47.31
2023-05-19T06:38:22.784Z,47.32
2023-05-19T06:39:22.805Z,47.32
2023-05-19T06:40:22.756Z,47.38
2023-05-19T06:41:22.765Z,47.40
2023-05-19T06:42:22.763Z,47.41
2023-05-19T06:43:22.759Z,47.41
2023-05-19T06:44:22.743Z,47.38
2023-05-19T06:45:22.731Z,47.40
2023-05-19T06:46:22.767Z,47.42
2023-05-19T06:47:22.837Z,47.45
2023-05-19T06:48:22.750Z,47.41
2023-05-19T06:49:22.720Z,47.43
2023-05-19T06:50:22.693Z,47.47
2023-05-19T06:51:22.705Z,47.44
2023-05-19T06:52:22.710Z,47.44
2023-05-19T06:53:22.730Z,47.41
2023-05-19T06:54:22.695Z,47.46
2023-05-19T06:55:22.677Z,47.48
2023-05-19T06:56:22.678Z,47.47
2023-05-19T06:57:22.667Z,47.38
2023-05-19T06:58:22.664Z,47.36
2023-05-19T06:59:22.682Z,47.44
2023-05-19T07:00:31.162Z,47.29
2023-05-19T07:01:23.646Z,47.40
2023-05-19T07:02:22.588Z,47.41
2023-05-19T07:03:22.761Z,47.42
2023-05-19T07:04:22.528Z,47.46
2023-05-19T07:05:22.517Z,47.43
2023-05-19T07:06:22.554Z,47.37
2023-05-19T07:07:22.455Z,47.43
2023-05-19T07:08:22.432Z,47.46
2023-05-19T07:09:22.425Z,47.51
2023-05-19T07:10:22.410Z,47.58
2023-05-19T07:11:22.462Z,47.65
2023-05-19T07:12:22.367Z,47.69
2023-05-19T07:13:22.290Z,47.77
2023-05-19T07:14:22.305Z,47.80
2023-05-19T07:15:22.232Z,47.89
2023-05-19T07:16:22.311Z,47.92
2023-05-19T07:17:22.463Z,47.95
2023-05-19T07:18:22.150Z,48.05
2023-05-19T07:19:22.154Z,48.10
2023-05-19T07:20:22.122Z,48.15
2023-05-19T07:21:22.083Z,48.31
2023-05-19T07:22:22.085Z,48.27
2023-05-19T07:23:22.045Z,48.32
2023-05-19T07:24:21.992Z,48.41
2023-05-19T07:25:21.973Z,48.46
2023-05-19T07:26:21.948Z,48.47
2023-05-19T07:27:21.972Z,48.42
2023-05-19T07:28:21.976Z,48.47
2023-05-19T07:29:21.991Z,48.48
2023-05-19T07:30:21.988Z,48.51
2023-05-19T07:31:22.067Z,48.52
2023-05-19T07:32:22.042Z,48.51
2023-05-19T07:33:21.993Z,48.47
2023-05-19T07:34:21.981Z,48.49
2023-05-19T07:35:21.975Z,48.59
2023-05-19T07:36:21.983Z,48.60
2023-05-19T07:37:21.978Z,48.60
2023-05-19T07:38:21.980Z,48.54
2023-05-19T07:39:22.018Z,48.54
2023-05-19T07:40:21.966Z,48.53
2023-05-19T07:41:21.973Z,48.55
2023-05-19T07:42:21.942Z,48.50
2023-05-19T07:43:21.946Z,48.47
2023-05-19T07:44:22.024Z,48.47
2023-05-19T07:45:21.925Z,48.47
2023-05-19T07:46:21.965Z,48.46
2023-05-19T07:47:21.912Z,48.47
2023-05-19T07:48:21.909Z,48.52
2023-05-19T07:49:21.870Z,48.52
2023-05-19T07:50:21.848Z,48.50
2023-05-19T07:51:21.860Z,48.47
2023-05-19T07:52:21.836Z,48.44
2023-05-19T07:53:21.834Z,48.50
2023-05-19T07:54:21.818Z,48.42
2023-05-19T07:55:21.806Z,48.36
2023-05-19T07:56:21.792Z,48.35
2023-05-19T07:57:21.799Z,48.33
2023-05-19T07:58:21.775Z,48.28
2023-05-19T07:59:21.783Z,48.27
2023-05-19T08:00:21.760Z,48.23
2023-05-19T08:01:21.740Z,48.20
2023-05-19T08:02:21.760Z,48.22
2023-05-19T08:03:21.808Z,48.25
2023-05-19T08:04:21.741Z,48.27
2023-05-19T08:05:21.670Z,48.30
2023-05-19T08:06:21.658Z,48.28
2023-05-19T08:07:21.656Z,48.37
2023-05-19T08:08:21.631Z,48.46
2023-05-19T08:09:21.636Z,48.51
2023-05-19T08:10:21.591Z,48.59
2023-05-19T08:11:21.647Z,48.50
2023-05-19T08:12:21.589Z,48.70
2023-05-19T08:13:21.608Z,48.77
2023-05-19T08:14:21.606Z,48.78
2023-05-19T08:15:21.622Z,48.80
2023-05-19T08:16:21.701Z,48.87
2023-05-19T08:17:21.597Z,48.88
2023-05-19T08:18:21.612Z,48.91
2023-05-19T08:19:21.847Z,48.94
2023-05-19T08:20:21.772Z,48.88
2023-05-19T08:21:21.613Z,48.88
2023-05-19T08:22:21.624Z,48.96
2023-05-19T08:23:21.676Z,48.92
2023-05-19T08:24:21.618Z,49.01
2023-05-19T08:25:21.653Z,49.10
2023-05-19T08:26:21.592Z,49.08
2023-05-19T08:27:21.655Z,49.07
2023-05-19T08:28:21.618Z,49.03
2023-05-19T08:29:21.633Z,49.07
2023-05-19T08:30:21.622Z,49.03
2023-05-19T08:31:21.609Z,49.03
2023-05-19T08:32:21.673Z,49.06
2023-05-19T08:33:21.594Z,49.06
2023-05-19T08:34:21.562Z,49.05
2023-05-19T08:35:21.555Z,49.02
2023-05-19T08:36:21.537Z,48.96
2023-05-19T08:37:21.562Z,49.02
2023-05-19T08:38:21.508Z,49.03
2023-05-19T08:39:21.554Z,48.84
2023-05-19T08:40:21.538Z,49.04
2023-05-19T08:41:21.487Z,48.97
2023-05-19T08:42:21.482Z,48.93
2023-05-19T08:43:21.499Z,48.84
2023-05-19T08:44:21.496Z,48.73
2023-05-19T08:45:21.481Z,48.68
2023-05-19T08:46:21.450Z,48.61
2023-05-19T08:47:21.418Z,48.53
2023-05-19T08:48:21.396Z,48.48
2023-05-19T08:49:22.211Z,48.43
2023-05-19T08:50:21.355Z,48.36
2023-05-19T08:51:21.348Z,48.37
2023-05-19T08:52:21.290Z,48.41
2023-05-19T08:53:32.520Z,48.41
2023-05-19T08:54:22.247Z,48.46
2023-05-19T08:55:21.240Z,48.51
2023-05-19T08:56:21.165Z,48.57
2023-05-19T08:57:21.179Z,48.56
2023-05-19T08:58:21.132Z,48.62
2023-05-19T08:59:21.122Z,48.64
2023-05-19T09:00:21.080Z,48.67
2023-05-19T09:01:21.233Z,48.70
2023-05-19T09:02:21.010Z,48.71
2023-05-19T09:03:23.881Z,48.81
2023-05-19T09:04:21.167Z,48.82
2023-05-19T09:05:20.985Z,48.86
2023-05-19T09:06:20.942Z,48.90
2023-05-19T09:07:20.939Z,48.92
2023-05-19T09:08:20.880Z,48.94
2023-05-19T09:09:20.850Z,49.00
2023-05-19T09:10:20.860Z,48.91
2023-05-19T09:11:20.813Z,49.11
2023-05-19T09:12:20.790Z,48.96
2023-05-19T09:13:20.728Z,49.10
2023-05-19T09:14:20.752Z,49.16
2023-05-19T09:15:20.738Z,49.18
2023-05-19T09:16:20.703Z,49.23
2023-05-19T09:17:20.658Z,49.23
2023-05-19T09:18:20.618Z,49.27
2023-05-19T09:19:20.641Z,49.26
2023-05-19T09:20:20.655Z,49.23
2023-05-19T09:21:20.553Z,49.27
2023-05-19T09:22:20.536Z,49.02
2023-05-19T09:23:20.481Z,49.23
2023-05-19T09:24:20.494Z,49.17
2023-05-19T09:25:20.421Z,49.18
2023-05-19T09:26:20.457Z,49.15
2023-05-19T09:27:20.412Z,49.14
2023-05-19T09:28:20.375Z,49.08
2023-05-19T09:29:20.348Z,49.11
2023-05-19T09:30:20.325Z,48.89
2023-05-19T09:31:20.296Z,49.08
2023-05-19T09:32:20.362Z,49.10
2023-05-19T09:33:20.285Z,49.11
2023-05-19T09:34:20.223Z,49.11
2023-05-19T09:35:20.209Z,49.07
2023-05-19T09:36:20.158Z,49.02
2023-05-19T09:37:20.144Z,48.93
2023-05-19T09:38:20.093Z,48.90
2023-05-19T09:39:20.055Z,48.85
2023-05-19T09:40:20.043Z,48.84
2023-05-19T09:41:20.036Z,48.90
2023-05-19T09:42:19.998Z,48.90
2023-05-19T09:43:20.077Z,48.92
2023-05-19T09:44:19.965Z,48.95
2023-05-19T09:45:19.924Z,48.98
2023-05-19T09:46:19.920Z,49.03
2023-05-19T09:47:19.898Z,49.09
2023-05-19T09:48:19.863Z,49.12
2023-05-19T09:49:19.837Z,49.12
2023-05-19T09:50:19.847Z,49.20
2023-05-19T09:51:19.787Z,49.27
2023-05-19T09:52:19.764Z,49.25
2023-05-19T09:53:19.717Z,49.28
2023-05-19T09:54:19.724Z,49.27
2023-05-19T09:55:19.699Z,49.26
2023-05-19T09:56:19.686Z,49.27
2023-05-19T09:57:19.667Z,49.30
2023-05-19T09:58:19.648Z,49.31
2023-05-19T09:59:19.572Z,49.36
2023-05-19T10:00:19.583Z,49.43
2023-05-19T10:01:19.603Z,49.47
2023-05-19T10:02:19.575Z,49.47
2023-05-19T10:03:19.531Z,49.47
2023-05-19T10:04:19.477Z,49.46
2023-05-19T10:05:19.500Z,49.45
2023-05-19T10:06:19.410Z,49.42
2023-05-19T10:07:19.427Z,49.37
2023-05-19T10:08:19.409Z,49.40
2023-05-19T10:09:19.478Z,49.38
2023-05-19T10:10:19.467Z,49.32
2023-05-19T10:11:19.544Z,49.29
2023-05-19T10:12:19.574Z,49.32
2023-05-19T10:13:19.608Z,49.28
2023-05-19T10:14:19.661Z,49.29
2023-05-19T10:15:22.202Z,49.27
2023-05-19T10:16:19.655Z,49.26
2023-05-19T10:17:19.638Z,49.18
2023-05-19T10:18:19.589Z,49.16
2023-05-19T10:19:19.560Z,49.17
2023-05-19T10:20:19.526Z,49.09
2023-05-19T10:21:19.526Z,49.08
2023-05-19T10:22:19.473Z,49.04
2023-05-19T10:23:19.427Z,49.02
2023-05-19T10:24:19.394Z,48.97
2023-05-19T10:25:19.383Z,48.90
2023-05-19T10:26:19.364Z,48.92
2023-05-19T10:27:19.300Z,48.92
2023-05-19T10:28:19.286Z,48.99
2023-05-19T10:29:19.273Z,49.04
2023-05-19T10:30:19.220Z,49.14
2023-05-19T10:31:19.206Z,49.15
2023-05-19T10:32:19.198Z,49.18
2023-05-19T10:33:19.133Z,49.22
2023-05-19T10:34:19.145Z,49.21
2023-05-19T10:35:19.046Z,49.27
2023-05-19T10:36:18.981Z,49.32
2023-05-19T10:37:18.988Z,49.35
2023-05-19T10:38:18.948Z,49.40
2023-05-19T10:39:18.918Z,49.50
2023-05-19T10:40:18.906Z,49.56
2023-05-19T10:41:18.848Z,49.59
2023-05-19T10:42:18.814Z,49.61
2023-05-19T10:43:18.826Z,49.60
2023-05-19T10:44:18.820Z,49.63
2023-05-19T10:45:18.754Z,49.68
2023-05-19T10:46:18.729Z,49.69
2023-05-19T10:47:18.831Z,49.65
2023-05-19T10:48:18.765Z,49.73
2023-05-19T10:49:18.797Z,49.71
2023-05-19T10:50:18.834Z,49.74
2023-05-19T10:51:18.804Z,49.79
2023-05-19T10:52:18.859Z,49.85
2023-05-19T10:53:18.883Z,49.87
2023-05-19T10:54:18.892Z,49.89
2023-05-19T10:55:18.959Z,49.87
2023-05-19T10:56:18.946Z,49.90
2023-05-19T10:57:19.400Z,49.94
2023-05-19T10:58:19.007Z,49.90
2023-05-19T10:59:19.061Z,49.87
2023-05-19T11:00:19.083Z,49.84
2023-05-19T11:01:19.134Z,49.79
2023-05-19T11:02:19.210Z,49.82
2023-05-19T11:03:19.121Z,49.77
2023-05-19T11:04:19.139Z,49.74
2023-05-19T11:05:19.141Z,49.73
2023-05-19T11:06:19.182Z,49.71
2023-05-19T11:07:19.164Z,49.69
2023-05-19T11:08:19.167Z,49.66
2023-05-19T11:09:20.978Z,49.68
2023-05-19T11:10:21.591Z,49.65
2023-05-19T11:11:19.166Z,49.60
2023-05-19T11:12:19.189Z,49.54
2023-05-19T11:13:19.199Z,49.50
2023-05-19T11:14:19.206Z,49.44
2023-05-19T11:15:19.188Z,49.39
2023-05-19T11:16:19.245Z,49.39
2023-05-19T11:17:19.196Z,49.39
2023-05-19T11:18:19.171Z,49.43
2023-05-19T11:19:19.367Z,49.46
2023-05-19T11:20:19.149Z,49.53
2023-05-19T11:21:19.225Z,49.62
2023-05-19T11:22:19.149Z,49.67
2023-05-19T11:23:19.179Z,49.73
2023-05-19T11:24:19.152Z,49.77
2023-05-19T11:25:19.091Z,49.79
2023-05-19T11:26:19.135Z,49.80
2023-05-19T11:27:19.155Z,49.83
2023-05-19T11:28:19.255Z,49.89
2023-05-19T11:29:19.128Z,49.95
2023-05-19T11:30:19.102Z,49.93
2023-05-19T11:31:19.081Z,50.03
2023-05-19T11:32:19.133Z,50.00
2023-05-19T11:33:19.114Z,50.00
2023-05-19T11:34:19.063Z,50.10
2023-05-19T11:35:19.144Z,50.09
2023-05-19T11:36:19.047Z,50.11
2023-05-19T11:37:19.112Z,50.16
2023-05-19T11:39:25.893Z,50.33
2023-05-19T11:40:25.872Z,50.36
2023-05-19T11:41:25.878Z,50.32
2023-05-19T11:42:25.915Z,50.28
2023-05-19T11:43:25.905Z,50.35
2023-05-19T11:44:25.823Z,50.25
2023-05-19T11:45:25.842Z,50.29
2023-05-19T11:46:25.888Z,50.28
2023-05-19T11:47:25.920Z,50.25
2023-05-19T11:48:25.883Z,50.26
2023-05-19T11:49:25.857Z,50.21
2023-05-19T11:50:25.939Z,50.18
2023-05-19T11:51:25.798Z,50.12
2023-05-19T11:52:25.814Z,50.10
2023-05-19T11:53:25.820Z,50.08
2023-05-19T11:54:25.796Z,50.02
2023-05-19T11:55:25.798Z,49.97
2023-05-19T11:56:25.798Z,50.01
2023-05-19T11:57:25.803Z,50.00
2023-05-19T11:58:25.795Z,49.94
2023-05-19T11:59:25.805Z,49.86
2023-05-19T12:00:25.751Z,49.87
2023-05-19T12:01:25.783Z,49.89
2023-05-19T12:02:25.854Z,50.01
2023-05-19T12:03:25.823Z,50.06
2023-05-19T12:04:25.763Z,50.10
2023-05-19T12:05:25.893Z,50.15
2023-05-19T12:06:25.745Z,50.22
2023-05-19T12:07:25.698Z,50.21
2023-05-19T12:08:25.715Z,50.28
2023-05-19T12:09:25.703Z,50.36
2023-05-19T12:10:25.698Z,50.38
2023-05-19T12:11:25.689Z,50.37
2023-05-19T12:12:25.701Z,50.46
2023-05-19T12:13:25.713Z,50.46
2023-05-19T12:14:25.696Z,50.45
2023-05-19T12:15:25.694Z,50.46
2023-05-19T12:16:25.691Z,50.44
2023-05-19T12:17:25.718Z,50.48
2023-05-19T12:18:25.674Z,50.50
2023-05-19T12:19:25.896Z,50.48
2023-05-19T12:20:25.666Z,50.52
2023-05-19T12:21:25.625Z,50.53
2023-05-19T12:22:26.665Z,50.59
2023-05-19T12:23:25.617Z,50.58
2023-05-19T12:24:25.617Z,50.60
2023-05-19T12:25:25.617Z,50.62
2023-05-19T12:26:25.644Z,50.66
2023-05-19T12:27:25.606Z,50.60
2023-05-19T12:28:25.612Z,50.65
2023-05-19T12:29:25.576Z,50.64
2023-05-19T12:30:25.583Z,50.57
2023-05-19T12:31:25.612Z,50.55
2023-05-19T12:32:25.717Z,50.55
2023-05-19T12:33:25.554Z,50.51
2023-05-19T12:34:25.555Z,50.51
2023-05-19T12:35:25.529Z,50.40
2023-05-19T12:36:25.572Z,50.39
2023-05-19T12:37:25.547Z,50.34
2023-05-19T12:38:25.534Z,50.25
2023-05-19T12:39:25.560Z,50.19
2023-05-19T12:40:25.557Z,50.17
2023-05-19T12:41:25.553Z,50.19
2023-05-19T12:42:25.550Z,50.20
2023-05-19T12:43:25.549Z,50.24
2023-05-19T12:44:25.559Z,50.28
2023-05-19T12:45:25.548Z,50.24
2023-05-19T12:46:25.688Z,50.24
2023-05-19T12:47:25.596Z,50.32
2023-05-19T12:48:25.544Z,50.37
2023-05-19T12:49:25.550Z,50.41
2023-05-19T12:50:25.548Z,50.39
2023-05-19T12:51:25.552Z,50.43
2023-05-19T12:52:25.569Z,50.46
2023-05-19T12:53:25.551Z,50.46